Time;durP1;ratioP1;P1;durP2;ratioP2;P2;SDS_P1;SDS_P2;PMS_P1;PMS_P2;Temp;Humidity;BMP_temperature;BMP_pressure;BME280_temperature;BME280_humidity;BME280_pressure;Samples;Min_cycle;Max_cycle;Signal;HPM_P1;HPM_P2
2022/12/23 00:00:33;;;;;;;;;40.25;33.25;;;;;;;;5068957;28;11512;-71
2022/12/23 00:02:59;;;;;;;;;38.50;37.00;;;;;;;;5071445;28;8812;-71
2022/12/23 00:05:24;;;;;;;;;40.75;34.50;;;;;;;;5072415;28;8912;-71
2022/12/23 00:07:49;;;;;;;;;46.25;41.50;;;;;;;;5072760;28;8869;-72
2022/12/23 00:10:14;;;;;;;;;44.50;37.75;;;;;;;;5073060;28;8797;-73
2022/12/23 00:15:24;;;;;;;;;40.50;38.00;;;;;;;;5072734;28;8780;-72
2022/12/23 00:17:49;;;;;;;;;45.50;41.00;;;;;;;;5072433;28;11540;-71
2022/12/23 00:20:14;;;;;;;;;41.50;38.50;;;;;;;;5072945;28;8874;-72
2022/12/23 00:25:39;;;;;;;;;41.25;39.00;;;;;;;;5072060;28;8799;-72
2022/12/23 00:28:09;;;;;;;;;44.00;38.00;;;;;;;;5072336;28;12302;-72
2022/12/23 00:30:34;;;;;;;;;43.75;38.25;;;;;;;;5072334;28;11506;-71
2022/12/23 00:32:59;;;;;;;;;51.00;38.75;;;;;;;;5072085;28;11571;-72
2022/12/23 00:35:24;;;;;;;;;43.50;38.50;;;;;;;;5072090;28;8893;-71
2022/12/23 00:37:50;;;;;;;;;42.75;39.25;;;;;;;;5072192;28;8815;-71
2022/12/23 00:42:59;;;;;;;;;45.25;41.25;;;;;;;;5071900;28;8833;-71
2022/12/23 00:45:25;;;;;;;;;47.75;40.50;;;;;;;;5070372;28;11610;-72
2022/12/23 00:50:35;;;;;;;;;48.00;40.00;;;;;;;;5072101;28;8911;-71
2022/12/23 00:53:01;;;;;;;;;44.00;38.75;;;;;;;;5071878;28;11617;-71
2022/12/23 00:55:26;;;;;;;;;42.75;39.50;;;;;;;;5071844;28;12362;-71
2022/12/23 00:57:51;;;;;;;;;47.00;42.00;;;;;;;;5071633;28;8780;-71
2022/12/23 01:00:17;;;;;;;;;52.25;44.00;;;;;;;;5071850;28;8862;-71
2022/12/23 01:05:35;;;;;;;;;41.75;36.00;;;;;;;;5071879;28;8776;-71
2022/12/23 01:08:00;;;;;;;;;39.75;36.75;;;;;;;;5071694;28;11513;-71
2022/12/23 01:10:26;;;;;;;;;42.50;39.25;;;;;;;;5071527;28;11484;-71
2022/12/23 01:12:51;;;;;;;;;40.25;38.25;;;;;;;;5070910;28;8789;-71
2022/12/23 01:15:16;;;;;;;;;41.25;37.50;;;;;;;;5044799;28;8806;-72
2022/12/23 01:17:41;;;;;;;;;46.50;40.25;;;;;;;;5031762;28;8812;-72
2022/12/23 01:20:07;;;;;;;;;45.25;36.75;;;;;;;;5031478;28;8840;-72
2022/12/23 01:22:32;;;;;;;;;47.00;39.75;;;;;;;;5029850;28;8814;-72
2022/12/23 01:24:58;;;;;;;;;48.50;40.00;;;;;;;;5029874;28;8860;-72
2022/12/23 01:27:23;;;;;;;;;44.00;41.75;;;;;;;;5066185;28;8812;-72
2022/12/23 01:29:48;;;;;;;;;44.50;33.00;;;;;;;;5071236;28;8831;-72
2022/12/23 01:32:14;;;;;;;;;35.00;32.50;;;;;;;;5071305;28;8857;-72
2022/12/23 01:34:39;;;;;;;;;42.50;37.00;;;;;;;;5071180;28;8962;-72
2022/12/23 01:37:04;;;;;;;;;42.75;30.25;;;;;;;;5070725;28;8789;-72
2022/12/23 01:39:30;;;;;;;;;47.50;40.25;;;;;;;;5070964;28;8796;-72
2022/12/23 01:44:56;;;;;;;;;42.75;36.75;;;;;;;;5071065;28;8756;-72
2022/12/23 01:47:33;;;;;;;;;35.50;29.75;;;;;;;;5070887;28;11478;-72
2022/12/23 01:50:17;;;;;;;;;41.25;36.50;;;;;;;;5070695;28;11616;-72
2022/12/23 01:52:54;;;;;;;;;41.00;36.25;;;;;;;;5070771;28;11535;-72
2022/12/23 01:55:22;;;;;;;;;44.50;38.75;;;;;;;;5070605;28;11492;-72
2022/12/23 01:57:47;;;;;;;;;40.75;36.25;;;;;;;;5070281;28;11528;-72
2022/12/23 02:05:41;;;;;;;;;39.75;36.75;;;;;;;;5070821;28;11485;-73
2022/12/23 02:11:09;;;;;;;;;42.00;39.75;;;;;;;;5070466;28;11525;-72
2022/12/23 02:16:52;;;;;;;;;38.50;34.50;;;;;;;;5047859;28;12204;-72
2022/12/23 02:19:30;;;;;;;;;40.00;36.75;;;;;;;;5048257;28;11505;-72
2022/12/23 02:22:01;;;;;;;;;37.75;32.50;;;;;;;;5047766;28;11451;-71
2022/12/23 02:24:44;;;;;;;;;44.25;39.50;;;;;;;;5046900;28;11560;-72
2022/12/23 02:27:15;;;;;;;;;40.25;34.50;;;;;;;;5047615;28;11452;-74
2022/12/23 02:29:59;;;;;;;;;41.25;37.25;;;;;;;;5047423;28;12227;-73
2022/12/23 02:32:43;;;;;;;;;36.75;32.75;;;;;;;;5047574;28;11451;-71
2022/12/23 02:35:13;;;;;;;;;30.75;26.50;;;;;;;;5047699;28;11517;-72
2022/12/23 02:37:45;;;;;;;;;35.00;31.75;;;;;;;;5047766;28;12165;-72
2022/12/23 02:40:13;;;;;;;;;33.25;30.25;;;;;;;;5047627;28;11449;-73
2022/12/23 02:42:49;;;;;;;;;35.75;31.00;;;;;;;;5047523;28;11434;-72
2022/12/23 02:45:44;;;;;;;;;39.25;33.25;;;;;;;;5047497;28;11524;-72
2022/12/23 02:48:15;;;;;;;;;34.00;28.50;;;;;;;;4994464;28;12331;-72
2022/12/23 02:50:42;;;;;;;;;38.50;33.50;;;;;;;;5047468;28;11433;-72
2022/12/23 02:53:15;;;;;;;;;35.00;32.50;;;;;;;;5060700;28;11540;-72
2022/12/23 02:55:43;;;;;;;;;35.25;31.25;;;;;;;;5068252;28;11504;-71
2022/12/23 02:58:10;;;;;;;;;34.75;28.75;;;;;;;;5069488;28;11584;-72
2022/12/23 03:00:37;;;;;;;;;40.25;31.75;;;;;;;;5069617;28;11602;-72
2022/12/23 03:03:02;;;;;;;;;35.25;33.25;;;;;;;;5068255;28;12284;-72
2022/12/23 03:05:31;;;;;;;;;38.25;31.25;;;;;;;;5069219;28;11504;-71
2022/12/23 03:08:01;;;;;;;;;36.25;31.50;;;;;;;;5067865;28;8966;-72
2022/12/23 03:10:45;;;;;;;;;34.25;30.50;;;;;;;;5069284;28;11698;-72
2022/12/23 03:13:21;;;;;;;;;13.00;10.50;;;;;;;;5069220;28;11495;-73
2022/12/23 03:15:55;;;;;;;;;32.25;27.50;;;;;;;;5069318;28;11554;-72
2022/12/23 03:18:21;;;;;;;;;36.25;31.00;;;;;;;;5069212;28;11564;-73
2022/12/23 03:20:56;;;;;;;;;36.75;33.25;;;;;;;;5069481;28;11528;-71
2022/12/23 03:23:29;;;;;;;;;35.00;29.75;;;;;;;;5067548;28;8896;-73
2022/12/23 03:25:57;;;;;;;;;33.50;30.25;;;;;;;;5067125;28;11582;-72
2022/12/23 03:28:31;;;;;;;;;29.00;27.75;;;;;;;;5068805;28;11518;-72
2022/12/23 03:30:58;;;;;;;;;34.50;28.25;;;;;;;;5069045;28;11571;-72
2022/12/23 03:33:28;;;;;;;;;36.25;30.00;;;;;;;;5069127;28;12318;-72
2022/12/23 03:36:01;;;;;;;;;30.50;26.00;;;;;;;;5068879;28;11593;-72
2022/12/23 03:38:27;;;;;;;;;21.75;20.50;;;;;;;;5068880;28;12301;-72
2022/12/23 03:40:55;;;;;;;;;25.00;23.50;;;;;;;;5069014;28;12397;-73
2022/12/23 03:43:32;;;;;;;;;32.00;24.75;;;;;;;;5068387;28;11482;-73
2022/12/23 03:46:00;;;;;;;;;25.75;23.00;;;;;;;;5069041;28;12318;-73
2022/12/23 03:48:34;;;;;;;;;29.25;25.50;;;;;;;;5069116;28;11469;-73
2022/12/23 03:51:03;;;;;;;;;25.00;24.50;;;;;;;;5068922;28;12287;-73
2022/12/23 03:53:38;;;;;;;;;27.25;23.00;;;;;;;;5068966;28;12210;-73
2022/12/23 03:56:12;;;;;;;;;29.00;24.00;;;;;;;;5068843;28;11470;-73
2022/12/23 03:58:43;;;;;;;;;24.25;23.25;;;;;;;;5069014;28;11504;-73
2022/12/23 04:01:22;;;;;;;;;27.25;24.50;;;;;;;;5068255;28;11532;-73
2022/12/23 04:03:58;;;;;;;;;33.00;28.75;;;;;;;;5068711;28;12262;-72
2022/12/23 04:06:26;;;;;;;;;26.50;19.50;;;;;;;;5068714;28;11478;-72
2022/12/23 04:08:52;;;;;;;;;43.00;37.25;;;;;;;;5068552;28;11486;-74
2022/12/23 04:11:17;;;;;;;;;31.00;27.67;;;;;;;;5068787;28;11544;-74
2022/12/23 04:13:42;;;;;;;;;54.33;45.00;;;;;;;;5068395;28;8877;-73
2022/12/23 04:16:08;;;;;;;;;52.67;44.00;;;;;;;;5068817;28;8878;-73
2022/12/23 04:18:33;;;;;;;;;49.67;44.00;;;;;;;;5068642;28;8776;-73
2022/12/23 04:20:58;;;;;;;;;57.67;46.33;;;;;;;;5067367;28;8970;-73
2022/12/23 04:23:24;;;;;;;;;58.33;46.67;;;;;;;;5068607;28;8911;-73
2022/12/23 04:25:49;;;;;;;;;64.00;45.33;;;;;;;;5068711;28;8897;-73
2022/12/23 04:28:14;;;;;;;;;56.33;45.33;;;;;;;;5068435;28;8788;-73
2022/12/23 04:30:39;;;;;;;;;53.00;46.00;;;;;;;;5068487;28;8826;-73
2022/12/23 04:33:05;;;;;;;;;55.00;46.33;;;;;;;;5068538;28;8784;-73
2022/12/23 04:35:30;;;;;;;;;60.67;49.00;;;;;;;;5068519;28;8875;-73
2022/12/23 04:37:55;;;;;;;;;56.00;43.33;;;;;;;;5068246;28;8896;-73
2022/12/23 04:40:21;;;;;;;;;60.00;48.33;;;;;;;;5068327;28;8827;-73
2022/12/23 04:42:46;;;;;;;;;57.67;47.33;;;;;;;;5068205;28;8792;-73
2022/12/23 04:45:11;;;;;;;;;64.33;52.00;;;;;;;;5066999;28;8804;-73
2022/12/23 04:47:36;;;;;;;;;64.00;49.00;;;;;;;;5069640;28;8819;-74
2022/12/23 04:50:02;;;;;;;;;59.67;49.67;;;;;;;;5071963;28;8866;-74
2022/12/23 04:52:27;;;;;;;;;63.00;51.67;;;;;;;;5072154;28;8792;-73
2022/12/23 04:54:52;;;;;;;;;62.00;51.67;;;;;;;;5071779;28;8780;-72
2022/12/23 04:57:18;;;;;;;;;61.67;48.67;;;;;;;;5071473;28;8823;-72
2022/12/23 04:59:43;;;;;;;;;54.33;45.00;;;;;;;;5070515;28;8942;-72
2022/12/23 05:02:09;;;;;;;;;61.00;48.67;;;;;;;;5071822;28;8912;-72
2022/12/23 05:04:34;;;;;;;;;56.67;45.33;;;;;;;;5071865;28;8796;-72
2022/12/23 05:06:59;;;;;;;;;52.00;46.00;;;;;;;;5071684;28;8924;-73
2022/12/23 05:09:25;;;;;;;;;50.33;44.33;;;;;;;;5070207;28;8800;-73
2022/12/23 05:11:50;;;;;;;;;62.67;47.33;;;;;;;;5060920;28;9501;-73
2022/12/23 05:14:15;;;;;;;;;52.67;45.00;;;;;;;;5050758;28;8865;-73
2022/12/23 05:16:41;;;;;;;;;44.33;40.67;;;;;;;;5051496;28;8801;-72
2022/12/23 05:19:06;;;;;;;;;44.00;41.33;;;;;;;;5052130;28;8809;-71
2022/12/23 05:21:32;;;;;;;;;57.33;46.67;;;;;;;;5051506;28;8833;-73
2022/12/23 05:23:57;;;;;;;;;47.00;41.00;;;;;;;;5051345;28;8826;-72
2022/12/23 05:26:22;;;;;;;;;58.00;44.00;;;;;;;;5060509;28;8796;-73
2022/12/23 05:28:48;;;;;;;;;61.67;48.67;;;;;;;;5071078;28;8893;-73
2022/12/23 05:31:13;;;;;;;;;62.00;48.67;;;;;;;;5049560;28;8861;-72
2022/12/23 05:33:39;;;;;;;;;57.33;45.00;;;;;;;;5044079;28;8806;-72
2022/12/23 05:36:04;;;;;;;;;61.67;48.33;;;;;;;;5041538;28;8914;-73
2022/12/23 05:38:30;;;;;;;;;54.00;43.33;;;;;;;;5041827;28;8895;-73
2022/12/23 05:40:55;;;;;;;;;45.33;41.00;;;;;;;;5034188;28;8923;-71
2022/12/23 05:43:21;;;;;;;;;67.67;49.67;;;;;;;;5030846;28;8793;-72
2022/12/23 05:45:46;;;;;;;;;49.00;45.00;;;;;;;;5038093;28;8829;-71
2022/12/23 05:48:12;;;;;;;;;60.00;48.00;;;;;;;;5037789;28;8945;-72
2022/12/23 05:50:37;;;;;;;;;56.00;48.00;;;;;;;;5042123;28;8874;-74
2022/12/23 05:53:03;;;;;;;;;48.33;41.00;;;;;;;;5030682;28;8935;-72
2022/12/23 05:55:29;;;;;;;;;53.67;41.00;;;;;;;;5036392;28;8797;-74
2022/12/23 05:57:54;;;;;;;;;50.33;45.00;;;;;;;;5071598;28;8804;-71
2022/12/23 06:00:20;;;;;;;;;45.67;42.67;;;;;;;;5071978;28;8882;-70
2022/12/23 06:02:45;;;;;;;;;40.67;36.00;;;;;;;;5071463;28;8800;-71
2022/12/23 06:05:11;;;;;;;;;37.00;33.75;;;;;;;;5070990;28;8815;-74
2022/12/23 06:07:37;;;;;;;;;43.50;34.00;;;;;;;;5071343;28;8798;-75
2022/12/23 06:10:03;;;;;;;;;35.00;29.50;;;;;;;;5070443;28;8940;-75
2022/12/23 06:12:28;;;;;;;;;30.50;25.50;;;;;;;;5030115;28;8884;-75
2022/12/23 06:14:53;;;;;;;;;35.75;29.50;;;;;;;;5032723;28;8785;-75
2022/12/23 06:17:18;;;;;;;;;29.25;26.00;;;;;;;;5050836;28;9501;-74
2022/12/23 06:19:46;;;;;;;;;28.25;27.00;;;;;;;;5043246;28;8813;-73
2022/12/23 06:22:11;;;;;;;;;27.00;26.50;;;;;;;;5029345;28;8820;-74
2022/12/23 06:24:37;;;;;;;;;31.25;23.25;;;;;;;;5030460;28;12343;-74
2022/12/23 06:27:03;;;;;;;;;26.75;21.50;;;;;;;;5059315;28;8804;-74
2022/12/23 06:29:28;;;;;;;;;23.25;20.25;;;;;;;;5070085;28;8881;-73
2022/12/23 06:31:53;;;;;;;;;22.50;19.00;;;;;;;;5069825;28;8789;-74
2022/12/23 06:34:18;;;;;;;;;26.25;23.75;;;;;;;;5070231;28;8780;-74
2022/12/23 06:36:44;;;;;;;;;22.00;16.25;;;;;;;;5070152;28;8895;-74
2022/12/23 06:39:09;;;;;;;;;19.50;17.50;;;;;;;;5070115;28;8789;-74
2022/12/23 06:41:34;;;;;;;;;24.25;19.75;;;;;;;;5070158;28;8843;-78
2022/12/23 06:44:00;;;;;;;;;27.25;19.50;;;;;;;;5070183;28;8889;-72
2022/12/23 06:46:25;;;;;;;;;23.50;20.25;;;;;;;;5062961;28;8981;-71
2022/12/23 06:48:50;;;;;;;;;20.00;19.25;;;;;;;;5049040;28;8802;-71
2022/12/23 06:51:15;;;;;;;;;24.50;24.25;;;;;;;;5049611;28;8830;-70
2022/12/23 06:53:41;;;;;;;;;26.00;22.00;;;;;;;;5049763;28;8794;-72
2022/12/23 06:56:06;;;;;;;;;25.00;20.00;;;;;;;;5056454;28;9518;-72
2022/12/23 06:58:31;;;;;;;;;26.25;19.75;;;;;;;;5069258;28;8776;-71
2022/12/23 07:00:56;;;;;;;;;22.75;21.00;;;;;;;;5069488;28;8885;-70
2022/12/23 07:03:22;;;;;;;;;26.00;22.25;;;;;;;;5068315;28;9530;-70
2022/12/23 07:05:47;;;;;;;;;21.75;21.50;;;;;;;;5067544;28;8889;-71
2022/12/23 07:08:13;;;;;;;;;23.50;20.00;;;;;;;;5069429;28;9514;-72
2022/12/23 07:10:38;;;;;;;;;23.75;18.25;;;;;;;;5068166;28;8820;-72
2022/12/23 07:13:03;;;;;;;;;21.50;19.25;;;;;;;;5069118;28;8800;-72
2022/12/23 07:15:28;;;;;;;;;22.50;17.25;;;;;;;;5069399;28;8792;-71
2022/12/23 07:17:54;;;;;;;;;21.75;17.00;;;;;;;;5069570;28;8866;-71
2022/12/23 07:20:19;;;;;;;;;24.75;20.50;;;;;;;;5069248;28;8820;-73
2022/12/23 07:22:45;;;;;;;;;14.25;12.75;;;;;;;;5067309;28;8820;-72
2022/12/23 07:25:10;;;;;;;;;21.50;20.00;;;;;;;;5061819;28;8814;-74
2022/12/23 07:27:35;;;;;;;;;19.75;17.25;;;;;;;;5067454;28;8808;-70
2022/12/23 07:30:01;;;;;;;;;20.00;16.00;;;;;;;;5045219;28;8854;-74
2022/12/23 07:32:26;;;;;;;;;22.00;18.00;;;;;;;;5047766;28;8834;-74
2022/12/23 07:34:51;;;;;;;;;31.00;19.50;;;;;;;;5066712;28;8823;-72
2022/12/23 07:37:16;;;;;;;;;18.50;18.50;;;;;;;;5052763;28;8973;-72
2022/12/23 07:39:42;;;;;;;;;35.25;26.75;;;;;;;;5048650;28;8876;-71
2022/12/23 07:42:07;;;;;;;;;31.75;26.00;;;;;;;;5048779;28;8806;-72
2022/12/23 07:44:32;;;;;;;;;44.75;38.50;;;;;;;;5047501;28;8927;-72
2022/12/23 07:46:57;;;;;;;;;31.00;26.50;;;;;;;;5048303;28;8807;-72
2022/12/23 07:49:23;;;;;;;;;28.25;26.25;;;;;;;;5048548;28;8799;-73
2022/12/23 07:51:48;;;;;;;;;24.00;21.75;;;;;;;;5048043;28;8815;-72
2022/12/23 07:54:13;;;;;;;;;26.75;21.50;;;;;;;;5062452;28;9613;-72
2022/12/23 07:56:39;;;;;;;;;21.50;20.25;;;;;;;;5068188;28;8851;-73
2022/12/23 07:59:04;;;;;;;;;27.25;21.25;;;;;;;;5068769;28;8873;-74
2022/12/23 08:01:29;;;;;;;;;23.75;21.50;;;;;;;;5068426;28;9594;-72
2022/12/23 08:03:55;;;;;;;;;66.67;53.00;;;;;;;;5053907;28;8933;-74
2022/12/23 08:06:20;;;;;;;;;29.25;27.25;;;;;;;;5048260;28;8838;-70
2022/12/23 08:08:45;;;;;;;;;26.75;26.50;;;;;;;;5048406;28;8910;-72
2022/12/23 08:11:12;;;;;;;;;25.00;24.00;;;;;;;;5048386;28;8857;-72
2022/12/23 08:13:40;;;;;;;;;31.25;26.00;;;;;;;;5048213;28;8818;-72
2022/12/23 08:16:05;;;;;;;;;29.50;25.50;;;;;;;;5048099;28;11547;-71
2022/12/23 08:18:32;;;;;;;;;25.00;21.50;;;;;;;;5048379;28;11484;-72
2022/12/23 08:20:57;;;;;;;;;26.25;23.00;;;;;;;;5048391;28;8862;-72
2022/12/23 08:23:23;;;;;;;;;27.25;21.00;;;;;;;;5044339;28;11547;-74
2022/12/23 08:25:49;;;;;;;;;37.50;33.25;;;;;;;;5041680;28;8838;-72
2022/12/23 08:28:14;;;;;;;;;24.50;21.75;;;;;;;;5039540;28;11576;-72
2022/12/23 08:30:39;;;;;;;;;23.00;21.25;;;;;;;;5039530;28;9545;-73
2022/12/23 08:33:04;;;;;;;;;20.25;15.25;;;;;;;;5041859;28;8895;-72
2022/12/23 08:35:30;;;;;;;;;26.25;23.75;;;;;;;;5039186;28;8829;-72
2022/12/23 08:37:55;;;;;;;;;19.00;18.50;;;;;;;;5040739;28;8803;-72
2022/12/23 08:40:20;;;;;;;;;20.50;18.50;;;;;;;;5040150;28;8829;-73
2022/12/23 08:42:45;;;;;;;;;20.00;19.00;;;;;;;;5041520;28;8954;-73
2022/12/23 08:45:11;;;;;;;;;19.25;19.25;;;;;;;;5040889;28;8825;-72
2022/12/23 08:47:36;;;;;;;;;22.75;21.50;;;;;;;;5045245;28;8929;-71
2022/12/23 08:50:02;;;;;;;;;21.75;21.00;;;;;;;;5041720;28;8892;-72
2022/12/23 08:52:29;;;;;;;;;23.00;19.25;;;;;;;;5041914;28;8809;-72
2022/12/23 08:54:55;;;;;;;;;27.00;21.00;;;;;;;;5042488;28;9554;-72
2022/12/23 08:57:21;;;;;;;;;22.75;19.75;;;;;;;;5045879;28;11558;-72
2022/12/23 08:59:46;;;;;;;;;25.75;23.00;;;;;;;;5041149;28;11509;-72
2022/12/23 09:02:11;;;;;;;;;23.25;22.25;;;;;;;;5030551;28;10134;-72
2022/12/23 09:04:37;;;;;;;;;27.00;26.75;;;;;;;;5040812;28;8822;-73
2022/12/23 09:07:02;;;;;;;;;29.50;25.75;;;;;;;;5039640;28;8871;-73
2022/12/23 09:09:27;;;;;;;;;27.50;24.00;;;;;;;;5042301;28;8933;-73
2022/12/23 09:11:53;;;;;;;;;24.75;22.75;;;;;;;;5043872;28;8892;-73
2022/12/23 09:14:18;;;;;;;;;30.75;24.00;;;;;;;;5056446;28;10046;-74
2022/12/23 09:16:43;;;;;;;;;26.75;23.00;;;;;;;;5050218;28;9018;-73
2022/12/23 09:19:09;;;;;;;;;25.25;22.50;;;;;;;;5029893;28;8793;-72
2022/12/23 09:21:34;;;;;;;;;28.75;22.50;;;;;;;;5036416;28;8857;-73
2022/12/23 09:24:00;;;;;;;;;29.75;23.50;;;;;;;;5040538;28;8802;-72
2022/12/23 09:26:27;;;;;;;;;26.00;26.00;;;;;;;;5043648;28;8891;-72
2022/12/23 09:28:52;;;;;;;;;12.25;11.25;;;;;;;;5028969;28;8841;-72
2022/12/23 09:31:18;;;;;;;;;23.00;19.50;;;;;;;;5030334;28;11574;-73
2022/12/23 09:33:45;;;;;;;;;28.00;23.00;;;;;;;;5031167;28;8781;-72
2022/12/23 09:36:10;;;;;;;;;25.75;21.25;;;;;;;;5031403;28;8789;-74
2022/12/23 09:38:36;;;;;;;;;27.00;22.50;;;;;;;;5029000;28;12480;-74
2022/12/23 09:41:09;;;;;;;;;31.50;23.00;;;;;;;;5030244;28;8802;-72
2022/12/23 09:43:46;;;;;;;;;32.00;29.25;;;;;;;;5029454;28;8806;-72
2022/12/23 09:46:16;;;;;;;;;28.50;27.50;;;;;;;;5029612;28;11528;-74
2022/12/23 09:48:48;;;;;;;;;31.75;30.00;;;;;;;;5028904;28;11557;-73
2022/12/23 09:51:16;;;;;;;;;32.25;26.00;;;;;;;;5028900;28;12344;-72
2022/12/23 09:53:41;;;;;;;;;33.00;27.50;;;;;;;;5036663;28;11619;-72
2022/12/23 09:56:14;;;;;;;;;23.00;22.25;;;;;;;;5049107;28;11572;-73
2022/12/23 09:58:47;;;;;;;;;33.75;29.00;;;;;;;;5033031;28;8816;-74
2022/12/23 10:01:12;;;;;;;;;37.25;31.25;;;;;;;;5028651;28;11524;-74
2022/12/23 10:03:46;;;;;;;;;31.25;26.25;;;;;;;;5029415;28;11526;-73
2022/12/23 10:06:30;;;;;;;;;30.75;27.00;;;;;;;;5029673;28;8782;-72
2022/12/23 10:08:57;;;;;;;;;33.75;27.25;;;;;;;;5027091;28;11528;-74
2022/12/23 10:11:25;;;;;;;;;28.75;26.50;;;;;;;;5028917;28;12140;-73
2022/12/23 10:13:52;;;;;;;;;29.75;28.75;;;;;;;;5028939;28;12168;-74
2022/12/23 10:16:19;;;;;;;;;31.75;31.00;;;;;;;;5028990;28;11589;-73
2022/12/23 10:18:51;;;;;;;;;28.75;27.25;;;;;;;;5028286;28;11644;-74
2022/12/23 10:21:19;;;;;;;;;27.75;26.25;;;;;;;;5030259;28;11569;-74
2022/12/23 10:23:48;;;;;;;;;39.00;34.50;;;;;;;;5030346;28;11618;-74
2022/12/23 10:26:21;;;;;;;;;36.25;31.25;;;;;;;;5037906;28;11547;-73
2022/12/23 10:28:47;;;;;;;;;35.25;29.50;;;;;;;;5031996;28;11550;-74
2022/12/23 10:31:18;;;;;;;;;32.00;30.50;;;;;;;;5029406;28;12309;-73
2022/12/23 10:34:06;;;;;;;;;38.25;32.00;;;;;;;;5030168;28;9488;-74
2022/12/23 10:36:40;;;;;;;;;36.25;32.50;;;;;;;;5028768;28;12231;-76
2022/12/23 10:39:14;;;;;;;;;35.25;32.75;;;;;;;;5026592;28;11530;-75
2022/12/23 10:41:51;;;;;;;;;34.50;29.00;;;;;;;;5029882;28;11523;-76
2022/12/23 10:44:28;;;;;;;;;39.25;31.75;;;;;;;;5029272;28;11534;-73
2022/12/23 10:47:20;;;;;;;;;34.75;28.00;;;;;;;;5029039;28;11506;-74
2022/12/23 10:49:54;;;;;;;;;37.25;34.50;;;;;;;;5020793;28;11545;-75
2022/12/23 10:52:20;;;;;;;;;31.75;29.50;;;;;;;;5046125;28;11540;-75
2022/12/23 10:54:46;;;;;;;;;71.00;54.00;;;;;;;;5049841;28;11597;-75
2022/12/23 10:57:14;;;;;;;;;96.75;82.00;;;;;;;;5038396;28;9730;-74
2022/12/23 10:59:39;;;;;;;;;110.75;99.00;;;;;;;;5037778;28;8933;-74
2022/12/23 11:02:05;;;;;;;;;46.33;38.67;;;;;;;;5037758;28;8921;-75
2022/12/23 11:04:33;;;;;;;;;47.00;40.00;;;;;;;;5041954;28;8897;-80
2022/12/23 11:07:00;;;;;;;;;35.00;32.75;;;;;;;;5036268;28;9610;-73
2022/12/23 11:09:29;;;;;;;;;38.25;31.50;;;;;;;;5038468;28;11524;-73
2022/12/23 11:11:56;;;;;;;;;33.50;32.50;;;;;;;;5037915;28;11543;-74
2022/12/23 11:14:28;;;;;;;;;38.50;36.00;;;;;;;;5037394;28;11561;-73
2022/12/23 11:16:53;;;;;;;;;39.00;36.50;;;;;;;;5031433;28;11652;-73
2022/12/23 11:19:19;;;;;;;;;42.75;37.50;;;;;;;;5031152;28;11577;-74
2022/12/23 11:21:59;;;;;;;;;52.50;40.50;;;;;;;;5045429;28;9556;-77
2022/12/23 11:24:26;;;;;;;;;47.00;38.50;;;;;;;;5038389;28;8845;-72
2022/12/23 11:27:00;;;;;;;;;42.25;37.25;;;;;;;;5049068;28;11535;-77
2022/12/23 11:29:42;;;;;;;;;54.00;40.50;;;;;;;;5028891;28;11558;-73
2022/12/23 11:32:34;;;;;;;;;54.50;42.50;;;;;;;;5040692;28;11799;-73
2022/12/23 11:34:59;;;;;;;;;49.00;40.00;;;;;;;;5027076;28;11560;-73
2022/12/23 11:37:30;;;;;;;;;55.25;44.75;;;;;;;;5034793;28;11589;-74
2022/12/23 11:39:56;;;;;;;;;49.00;41.25;;;;;;;;5046443;28;9364;-73
2022/12/23 11:42:27;;;;;;;;;54.25;43.50;;;;;;;;5047985;28;11543;-74
2022/12/23 11:44:53;;;;;;;;;46.50;39.00;;;;;;;;5049334;28;9521;-74
2022/12/23 11:47:22;;;;;;;;;50.00;42.75;;;;;;;;5049660;28;11521;-74
2022/12/23 11:49:48;;;;;;;;;49.00;41.25;;;;;;;;5048714;28;11658;-76
2022/12/23 11:52:16;;;;;;;;;48.75;41.00;;;;;;;;5049256;28;11653;-72
2022/12/23 11:54:48;;;;;;;;;51.75;42.50;;;;;;;;5048844;28;11612;-74
2022/12/23 11:57:15;;;;;;;;;49.25;41.00;;;;;;;;5051138;28;11519;-71
2022/12/23 11:59:47;;;;;;;;;56.25;47.00;;;;;;;;5052134;28;11523;-72
2022/12/23 12:02:33;;;;;;;;;47.50;42.75;;;;;;;;5051455;28;11523;-72
2022/12/23 12:05:01;;;;;;;;;57.75;45.25;;;;;;;;5052801;28;12371;-73
2022/12/23 12:07:26;;;;;;;;;60.25;47.00;;;;;;;;5051513;28;12724;-73
2022/12/23 12:09:55;;;;;;;;;56.33;45.33;;;;;;;;5052438;28;11535;-72
2022/12/23 12:12:20;;;;;;;;;58.33;47.67;;;;;;;;5052406;28;12414;-76
2022/12/23 12:14:48;;;;;;;;;56.75;45.25;;;;;;;;5043173;28;11661;-74
